AirNav   Air Wisconsin Up To $57,000 Bonus
 
 835 users online  

3IS3 Noland Farms Airport
Blue Mound, Illinois, USA

GOING TO BLUE MOUND?


FAA INFORMATION EFFECTIVE 01 DECEMBER 2022

Location

FAA Identifier: 3IS3
Lat/Long: 39-44-20.9200N 089-08-49.8250W
39-44.348667N 089-08.830417W
39.7391444,-89.1471736
(estimated)
Elevation: 602 ft. / 183 m (estimated)
Variation: 01E (1985)
From city: 3 miles NW of BLUE MOUND, IL
Time zone: UTC -6 (UTC -5 during Daylight Saving Time)
Zip code: 62513

Airport Operations

Airport use: Private use. Permission required prior to landing
Activation date: 06/1964
Control tower: no
ARTCC: CHICAGO CENTER
FSS: SAINT LOUIS FLIGHT SERVICE STATION
Attendance: UNATNDD
Wind indicator: yes
Segmented circle: no

Airport Communications

WX ASOS at DEC (14 nm NE): PHONE 217-429-0052
WX AWOS-3 at TAZ (15 nm SW): 123.875 (217-824-9323)

Nearby radio navigation aids

VOR radial/distance  VOR name  Freq  Var
AXCr267/13.4ADDERS VORTAC117.2003E
SPIr105/25.2SPINNER VORTAC112.7001W
VLAr357/38.7VANDALIA VOR/DME114.3004E

 
NDB name  Hdg/Dist  Freq  Var  ID
ELWIN252/9.427501WDE -.. .
SHELBYVILLE327/24.436502WSYZ ... -.-- --..
ABRAHAM161/26.732900EAAA .- .- .-

Airport Services

Airframe service: NONE
Powerplant service: NONE

Runway Information

Runway E/W

Dimensions: 2000 x 100 ft. / 610 x 30 m
Surface: turf
RUNWAY E  RUNWAY W
Latitude: 39-44.347833N39-44.349500N
Longitude: 089-09.043667W089-08.617167W
Elevation: 601.0 ft.602.0 ft.
Traffic pattern: leftleft
Runway heading: 089 magnetic, 090 true269 magnetic, 270 true
Touchdown point: yes, no lightsyes, no lights

Airport Ownership and Management from official FAA records

Ownership: Privately-owned
Owner: NOLAND FARMS INC
7954 S. MERIDIAN AVE
BLUE MOUND, IL 62513-7067
Phone (217) 433-8947
Manager: DENNIS J. NOLAND
7954 S. MERIDIAN AVE
BLUE MOUND, IL 62513-7067
Phone (217) 433-8947

Airport Operational Statistics

Aircraft based on the field: 1
Single engine airplanes: 1
    

Additional Remarks

FOR CD CTC CHICAGO ARTCC AT 630-906-8921.

Instrument Procedures

There are no published instrument procedures at 3IS3.

Some nearby airports with instrument procedures:

KDEC - Decatur Airport (14 nm NE)
KTAZ - Taylorville Municipal Airport (15 nm SW)
2H0 - Shelby County Airport (24 nm SE)
KSPI - Abraham Lincoln Capital Airport (25 nm W)
KAAA - Logan County Airport (27 nm N)
 
Loc | Ops | Rwys | IFR | FBO | Links
Com | Nav | Svcs | Stats | Notes
Area around 3IS3 (Noland Farms Airport)
 
Road maps at: MapQuest Bing Google
 
Aerial photo
No photo
 
Sectional chart

 
Airport distance calculator
Flying to Noland Farms Airport? Find the distance to fly.

From to 3IS3

Sunrise and sunset
Times for 07-Dec-2022
 Local
(UTC-6)
 Zulu
(UTC)
Morning civil twilight06:3512:35
Sunrise07:0513:05
Sunset16:3122:31
Evening civil twilight17:0123:01

Current date and time
Zulu (UTC)  07-Dec-2022 13:07:37
Local (UTC-6)  07-Dec-2022 07:07:37
 
METAR
KDEC 
15nm NE 
071254Z 02007KT 1/4SM FG VV002 04/04 A3020 RMK AO2 SLP231 T00390039
KTAZ 
15nm SW 
071255Z AUTO 36003KT 1/4SM OVC003 03/02 A3021 RMK AO2 T00260024 PWINO
KSPI 
26nm W 
071252Z 04004KT 1/2SM R04/2000V2400FT FG VV002 04/03 A3020 RMK AO2 SLP229 T00390033
KAAA 
27nm N 
071255Z AUTO 36004KT 1/4SM FG OVC002 02/02 A3022 RMK AO2 T00210021
TAF
KDEC 
15nm NE 
071121Z 0712/0812 36004KT 2SM BR OVC004 TEMPO 0712/0714 1/2SM FG VV002 FM071500 VRB03KT 6SM BR BKN007 FM071800 33005KT P6SM BKN018 FM080000 04003KT P6SM OVC012 FM080800 06008KT P6SM OVC007
NOTAMs
Click for the latest NOTAMs
NOTAMs are issued by the DoD/FAA and will open in a separate window not controlled by AirNav.

 

 
 

Would you like to see your business listed on this page?

 If your business provides an interesting product or service to pilots, flight crews, aircraft, or users of the Noland Farms Airport, you should consider listing it here.  To start the listing process, click on the button below
 
Add a business
 

Other Pages about Noland Farms Airport

Update a link
 
Copyright © AirNav, LLC. All rights reserved. Privacy Policy  Contact